Time;durP1;ratioP1;P1;durP2;ratioP2;P2;SDS_P1;SDS_P2;PMS_P1;PMS_P2;Temp;Humidity;BMP_temperature;BMP_pressure;BME280_temperature;BME280_humidity;BME280_pressure;Samples;Min_cycle;Max_cycle;Signal;HPM_P1;HPM_P2
2022/03/23 00:00:06;;;;;;;53.57;50.77;;;7.90;99.90;;;;;;4375302;32;20244;-61
2022/03/23 00:02:33;;;;;;;50.50;48.40;;;7.80;99.90;;;;;;4377167;32;20158;-60
2022/03/23 00:05:00;;;;;;;47.27;45.17;;;7.80;99.90;;;;;;4375399;32;20540;-61
2022/03/23 00:07:28;;;;;;;47.93;45.77;;;7.80;99.90;;;;;;4373912;32;20653;-60
2022/03/23 00:09:55;;;;;;;46.70;44.73;;;7.70;99.90;;;;;;4374946;32;20213;-61
2022/03/23 00:12:22;;;;;;;47.27;45.20;;;7.70;99.90;;;;;;4375263;32;20235;-61
2022/03/23 00:14:48;;;;;;;42.30;40.30;;;7.70;99.90;;;;;;4375365;32;20221;-60
2022/03/23 00:17:15;;;;;;;44.50;42.53;;;7.70;99.90;;;;;;4374817;32;20237;-61
2022/03/23 00:19:42;;;;;;;44.90;42.97;;;7.60;99.90;;;;;;4376075;32;20168;-61
2022/03/23 00:22:09;;;;;;;39.50;37.70;;;7.60;99.90;;;;;;4373759;32;20213;-60
2022/03/23 00:24:37;;;;;;;43.47;41.47;;;7.60;99.90;;;;;;4360489;33;20149;-60
2022/03/23 00:27:04;;;;;;;40.30;38.37;;;7.50;99.90;;;;;;4366639;32;20468;-62
2022/03/23 00:29:31;;;;;;;40.20;38.40;;;7.50;99.90;;;;;;4371390;32;20266;-61
2022/03/23 00:31:58;;;;;;;41.97;40.23;;;7.40;99.90;;;;;;4360267;33;20140;-60
2022/03/23 00:34:25;;;;;;;45.80;43.60;;;7.40;99.90;;;;;;4360238;33;20150;-60
2022/03/23 00:36:51;;;;;;;36.30;34.67;;;7.40;99.90;;;;;;4363857;32;20180;-60
2022/03/23 00:39:20;;;;;;;39.23;37.53;;;7.40;99.90;;;;;;4375300;32;20222;-60
2022/03/23 00:41:50;;;;;;;35.57;34.07;;;7.30;99.90;;;;;;4376093;32;20138;-61
2022/03/23 00:44:17;;;;;;;40.67;38.93;;;7.30;99.90;;;;;;4373494;32;20171;-60
2022/03/23 00:46:44;;;;;;;39.47;37.50;;;7.20;99.90;;;;;;4374572;32;20173;-61
2022/03/23 00:49:10;;;;;;;37.33;35.53;;;7.20;99.90;;;;;;4376682;32;20152;-60
2022/03/23 00:51:37;;;;;;;40.13;38.40;;;7.20;99.90;;;;;;4375118;32;20172;-60
2022/03/23 00:54:04;;;;;;;39.33;37.50;;;7.10;99.90;;;;;;4375036;32;20509;-60
2022/03/23 00:56:31;;;;;;;38.03;36.37;;;7.10;99.90;;;;;;4375197;32;20637;-60
2022/03/23 00:58:59;;;;;;;38.37;36.57;;;7.10;99.90;;;;;;4374871;32;20546;-61
2022/03/23 01:01:27;;;;;;;36.57;34.87;;;7.00;99.90;;;;;;4376240;32;20554;-61
2022/03/23 01:03:54;;;;;;;36.03;34.40;;;7.00;99.90;;;;;;4375581;32;20142;-60
2022/03/23 01:06:21;;;;;;;46.03;44.07;;;7.00;99.90;;;;;;4374966;32;20597;-61
2022/03/23 01:08:48;;;;;;;42.63;40.77;;;6.90;99.90;;;;;;4376440;32;20550;-60
2022/03/23 01:11:15;;;;;;;36.23;34.47;;;6.90;99.90;;;;;;4377696;32;20516;-60
2022/03/23 01:13:47;;;;;;;33.00;31.37;;;6.80;99.90;;;;;;4374099;32;20191;-60
2022/03/23 01:16:16;;;;;;;34.10;32.53;;;6.80;99.90;;;;;;4371838;32;20312;-60
2022/03/23 01:18:43;;;;;;;31.97;30.53;;;6.80;99.90;;;;;;4376455;32;20191;-60
2022/03/23 01:21:10;;;;;;;34.70;33.17;;;6.80;99.90;;;;;;4378538;32;20208;-60
2022/03/23 01:23:37;;;;;;;35.30;33.73;;;6.70;99.90;;;;;;4379043;32;20645;-60
2022/03/23 01:26:04;;;;;;;34.93;33.33;;;6.70;99.90;;;;;;4379247;32;20185;-61
2022/03/23 01:28:31;;;;;;;30.23;28.80;;;6.60;99.90;;;;;;4376913;32;20145;-60
2022/03/23 01:30:57;;;;;;;30.00;28.63;;;6.60;99.90;;;;;;4376903;32;20145;-60
2022/03/23 01:33:26;;;;;;;32.90;31.40;;;6.60;99.90;;;;;;4377178;32;20206;-60
2022/03/23 01:35:52;;;;;;;32.77;31.27;;;6.50;99.90;;;;;;4377082;32;20149;-60
2022/03/23 01:38:22;;;;;;;34.80;32.97;;;6.50;99.90;;;;;;4376209;32;20156;-60
2022/03/23 01:40:49;;;;;;;34.50;33.00;;;6.50;99.90;;;;;;4378272;32;20133;-60
2022/03/23 01:43:15;;;;;;;29.87;28.47;;;6.40;99.90;;;;;;4378617;32;20609;-60
2022/03/23 01:45:42;;;;;;;32.33;30.80;;;6.40;99.90;;;;;;4376419;32;20228;-61
2022/03/23 01:48:09;;;;;;;33.63;31.90;;;6.40;99.90;;;;;;4376699;32;20229;-61
2022/03/23 01:50:37;;;;;;;36.83;35.20;;;6.40;99.90;;;;;;4377138;32;20175;-61
2022/03/23 01:53:04;;;;;;;32.27;30.77;;;6.40;99.90;;;;;;4377194;32;20173;-61
2022/03/23 01:55:31;;;;;;;30.10;28.70;;;6.40;99.90;;;;;;4377645;32;20209;-61
2022/03/23 01:57:58;;;;;;;30.60;29.17;;;6.30;99.90;;;;;;4376750;32;20524;-61
2022/03/23 02:00:26;;;;;;;27.97;26.77;;;6.30;99.90;;;;;;4376223;32;20157;-60
2022/03/23 02:02:53;;;;;;;28.40;27.07;;;6.30;99.90;;;;;;4376889;32;20163;-61
2022/03/23 02:05:20;;;;;;;31.97;30.43;;;6.20;99.90;;;;;;4377931;32;20179;-61
2022/03/23 02:07:48;;;;;;;31.03;29.70;;;6.20;99.90;;;;;;4377157;32;20212;-61
2022/03/23 02:10:16;;;;;;;33.53;32.00;;;6.10;99.90;;;;;;4376677;32;20457;-61
2022/03/23 02:12:44;;;;;;;27.47;26.20;;;6.10;99.90;;;;;;4376240;32;20163;-61
2022/03/23 02:15:13;;;;;;;30.43;29.10;;;6.10;99.90;;;;;;4378598;32;20568;-61
2022/03/23 02:17:42;;;;;;;28.40;27.23;;;6.10;99.90;;;;;;4376271;32;20235;-61
2022/03/23 02:20:10;;;;;;;30.93;29.20;;;6.10;99.90;;;;;;4376290;32;20163;-61
2022/03/23 02:22:41;;;;;;;30.87;29.47;;;6.00;99.90;;;;;;4377579;32;20203;-61
2022/03/23 02:25:09;;;;;;;25.27;24.20;;;6.00;99.90;;;;;;4378089;32;20175;-60
2022/03/23 02:27:37;;;;;;;32.70;31.30;;;6.00;99.90;;;;;;4375012;32;20160;-60
2022/03/23 02:30:06;;;;;;;31.93;30.40;;;5.90;99.90;;;;;;4376909;32;20184;-60
2022/03/23 02:32:32;;;;;;;32.57;31.13;;;5.90;99.90;;;;;;4378361;32;20212;-60
2022/03/23 02:35:00;;;;;;;32.97;31.47;;;5.90;99.90;;;;;;4377170;32;20216;-60
2022/03/23 02:37:27;;;;;;;35.10;33.47;;;5.90;99.90;;;;;;4376963;32;20128;-60
2022/03/23 02:39:56;;;;;;;29.50;28.23;;;5.80;99.90;;;;;;4375730;32;20180;-60
2022/03/23 02:42:22;;;;;;;30.77;29.30;;;5.80;99.90;;;;;;4365654;32;20194;-60
2022/03/23 02:44:49;;;;;;;29.93;28.60;;;5.80;99.90;;;;;;4366419;32;20532;-60
2022/03/23 02:47:16;;;;;;;31.33;29.87;;;5.80;99.90;;;;;;4375674;32;20137;-60
2022/03/23 02:49:43;;;;;;;35.77;33.87;;;5.80;99.90;;;;;;4377722;32;20215;-60
2022/03/23 02:52:10;;;;;;;31.77;30.40;;;5.80;99.90;;;;;;4377979;32;20157;-60
2022/03/23 03:03:16;;;;;;;24.40;23.10;;;5.60;99.90;;;;;;4361275;32;20262;-61
2022/03/23 03:05:43;;;;;;;25.77;24.50;;;5.60;99.90;;;;;;4374793;32;20216;-60
2022/03/23 03:10:54;;;;;;;25.23;24.07;;;5.60;99.90;;;;;;4368346;32;20160;-60
2022/03/23 03:13:22;;;;;;;27.33;26.00;;;5.50;99.90;;;;;;4375852;32;20224;-60
2022/03/23 03:15:49;;;;;;;28.37;27.07;;;5.50;99.90;;;;;;4375781;32;20479;-60
2022/03/23 03:18:15;;;;;;;25.40;24.37;;;5.50;99.90;;;;;;4377720;32;20132;-61
2022/03/23 03:20:42;;;;;;;28.10;26.77;;;5.50;99.90;;;;;;4377202;32;20642;-60
2022/03/23 03:23:11;;;;;;;26.07;24.93;;;5.40;99.90;;;;;;4375325;32;20220;-60
2022/03/23 03:25:38;;;;;;;28.03;26.77;;;5.40;99.90;;;;;;4377685;32;20549;-60
2022/03/23 03:28:05;;;;;;;27.80;26.50;;;5.40;99.90;;;;;;4376455;32;20202;-60
2022/03/23 03:30:33;;;;;;;29.10;27.83;;;5.30;99.90;;;;;;4375462;32;20228;-60
2022/03/23 03:33:00;;;;;;;29.07;27.63;;;5.30;99.90;;;;;;4376845;32;20537;-60
2022/03/23 03:35:26;;;;;;;27.87;26.60;;;5.30;99.90;;;;;;4376376;32;20132;-60
2022/03/23 03:37:54;;;;;;;27.07;25.73;;;5.20;99.90;;;;;;4375930;32;20212;-60
2022/03/23 03:40:21;;;;;;;27.37;26.13;;;5.20;99.90;;;;;;4377271;32;20155;-60
2022/03/23 03:42:48;;;;;;;28.87;27.50;;;5.20;99.90;;;;;;4374578;32;20159;-60
2022/03/23 03:45:15;;;;;;;32.67;31.13;;;5.10;99.90;;;;;;4370709;32;20198;-59
2022/03/23 03:47:44;;;;;;;31.43;30.07;;;5.20;99.90;;;;;;4375392;32;20151;-60
2022/03/23 03:50:11;;;;;;;27.77;26.43;;;5.10;99.90;;;;;;4375497;32;20145;-60
2022/03/23 03:52:38;;;;;;;32.07;30.57;;;5.10;99.90;;;;;;4375166;32;20236;-60
2022/03/23 03:55:05;;;;;;;31.03;29.63;;;5.10;99.90;;;;;;4375853;32;20721;-60
2022/03/23 03:57:32;;;;;;;28.33;27.03;;;5.00;99.90;;;;;;4361392;32;20162;-60
2022/03/23 03:59:59;;;;;;;30.63;29.23;;;5.00;99.90;;;;;;4361818;32;20157;-60
2022/03/23 04:02:25;;;;;;;26.33;25.20;;;5.00;99.90;;;;;;4367750;32;20175;-60
2022/03/23 04:04:54;;;;;;;26.87;25.67;;;4.90;99.90;;;;;;4376362;32;20204;-60
2022/03/23 04:07:20;;;;;;;28.80;27.37;;;4.90;99.90;;;;;;4375516;32;20212;-60
2022/03/23 04:09:47;;;;;;;31.70;30.17;;;4.90;99.90;;;;;;4375652;32;20644;-60
2022/03/23 04:12:14;;;;;;;29.23;27.87;;;4.90;99.90;;;;;;4376220;32;20187;-60
2022/03/23 04:14:41;;;;;;;27.60;26.23;;;4.90;99.90;;;;;;4375452;32;20203;-59
2022/03/23 04:17:07;;;;;;;28.53;27.33;;;4.90;99.90;;;;;;4376143;32;20211;-60
2022/03/23 04:19:34;;;;;;;28.67;27.40;;;4.80;99.90;;;;;;4375190;32;20144;-60
2022/03/23 04:22:02;;;;;;;30.37;28.80;;;4.80;99.90;;;;;;4377926;32;20230;-60
2022/03/23 04:24:29;;;;;;;32.03;30.63;;;4.90;99.90;;;;;;4375223;32;20159;-60
2022/03/23 04:26:56;;;;;;;26.97;25.83;;;4.90;99.90;;;;;;4367744;32;20176;-60
2022/03/23 04:29:24;;;;;;;27.37;26.10;;;4.90;99.90;;;;;;4375068;32;20557;-60
2022/03/23 04:31:51;;;;;;;27.93;26.63;;;4.90;99.90;;;;;;4375192;32;20212;-60
2022/03/23 04:34:18;;;;;;;28.10;26.77;;;4.80;99.90;;;;;;4374610;32;20462;-60
2022/03/23 04:36:45;;;;;;;27.60;26.20;;;4.80;99.90;;;;;;4375395;32;20155;-59
2022/03/23 04:39:13;;;;;;;25.83;24.57;;;4.70;99.90;;;;;;4375527;32;20159;-60
2022/03/23 04:41:40;;;;;;;24.33;23.33;;;4.70;99.90;;;;;;4386648;32;20144;-60
2022/03/23 04:44:07;;;;;;;25.73;24.57;;;4.70;99.90;;;;;;4378731;32;20155;-60
2022/03/23 04:46:34;;;;;;;28.37;26.93;;;4.70;99.90;;;;;;4378659;32;20219;-60
2022/03/23 04:49:01;;;;;;;23.40;22.30;;;4.60;99.90;;;;;;4378022;32;20132;-60
2022/03/23 04:51:30;;;;;;;24.10;23.10;;;4.70;99.90;;;;;;4378162;32;20129;-60
2022/03/23 04:53:57;;;;;;;24.57;23.50;;;4.60;99.90;;;;;;4377344;32;20568;-60
2022/03/23 04:56:25;;;;;;;23.10;22.10;;;4.60;99.90;;;;;;4379528;32;20140;-60
2022/03/23 04:58:52;;;;;;;21.83;20.77;;;4.50;99.90;;;;;;4377668;32;20439;-60
2022/03/23 05:01:19;;;;;;;22.90;21.77;;;4.50;99.90;;;;;;4377917;32;20165;-60
2022/03/23 05:03:46;;;;;;;28.30;26.97;;;4.50;99.90;;;;;;4377431;32;20176;-60
2022/03/23 05:06:13;;;;;;;25.70;24.53;;;4.50;99.90;;;;;;4377762;32;20246;-60
2022/03/23 05:08:39;;;;;;;26.17;24.73;;;4.50;99.90;;;;;;4378127;32;20133;-60
2022/03/23 05:11:06;;;;;;;29.73;28.27;;;4.40;99.90;;;;;;4377523;32;20259;-60
2022/03/23 05:13:34;;;;;;;27.00;25.70;;;4.40;99.90;;;;;;4376398;32;20246;-60
2022/03/23 05:16:01;;;;;;;29.33;28.07;;;4.40;99.90;;;;;;4379418;32;20146;-60
2022/03/23 05:18:28;;;;;;;27.73;26.40;;;4.40;99.90;;;;;;4379404;32;20545;-60
2022/03/23 05:20:55;;;;;;;29.43;27.93;;;4.30;99.90;;;;;;4377677;32;20493;-60
2022/03/23 05:23:22;;;;;;;28.37;27.03;;;4.30;99.90;;;;;;4377808;32;20224;-60
2022/03/23 05:25:48;;;;;;;30.07;28.63;;;4.30;99.90;;;;;;4377544;32;20140;-60
2022/03/23 05:28:15;;;;;;;31.17;29.67;;;4.30;99.90;;;;;;4377334;32;20208;-60
2022/03/23 05:30:43;;;;;;;30.20;28.80;;;4.30;99.90;;;;;;4377512;32;20542;-60
2022/03/23 05:33:10;;;;;;;31.73;30.03;;;4.30;99.90;;;;;;4378047;32;20161;-60
2022/03/23 05:35:37;;;;;;;32.27;30.87;;;4.30;99.90;;;;;;4373333;32;20179;-60
2022/03/23 05:38:04;;;;;;;30.13;28.77;;;4.30;99.90;;;;;;4363746;32;20581;-60
2022/03/23 05:40:31;;;;;;;34.00;32.37;;;4.30;99.90;;;;;;4362087;33;20208;-60
2022/03/23 05:42:58;;;;;;;34.73;33.20;;;4.20;99.90;;;;;;4365572;32;20601;-60
2022/03/23 05:45:24;;;;;;;34.97;33.43;;;4.20;99.90;;;;;;4376586;32;20589;-60
2022/03/23 05:47:53;;;;;;;31.83;30.27;;;4.20;99.90;;;;;;4377315;32;20207;-60
2022/03/23 05:50:21;;;;;;;35.83;34.23;;;4.20;99.90;;;;;;4377328;32;20136;-60
2022/03/23 05:52:47;;;;;;;34.20;32.63;;;4.30;99.90;;;;;;4376677;32;20128;-60
2022/03/23 05:55:14;;;;;;;34.90;33.17;;;4.30;99.90;;;;;;4376934;32;20171;-60
2022/03/23 05:57:41;;;;;;;34.33;32.80;;;4.30;99.90;;;;;;4376287;32;20204;-60
2022/03/23 06:00:10;;;;;;;36.73;35.07;;;4.30;99.90;;;;;;4378770;32;20156;-60
2022/03/23 06:02:37;;;;;;;40.17;38.33;;;4.30;99.90;;;;;;4376653;32;20194;-60
2022/03/23 06:05:06;;;;;;;40.97;39.00;;;4.30;99.90;;;;;;4377715;32;20160;-60
2022/03/23 06:07:34;;;;;;;43.50;41.67;;;4.40;99.90;;;;;;4377080;32;20133;-60
2022/03/23 06:10:01;;;;;;;43.90;41.80;;;4.40;99.90;;;;;;4377218;32;20306;-60
2022/03/23 06:12:28;;;;;;;50.70;48.47;;;4.40;99.90;;;;;;4372947;32;20167;-60
2022/03/23 06:14:55;;;;;;;51.17;48.87;;;4.50;99.90;;;;;;4366256;32;20143;-60
2022/03/23 06:17:22;;;;;;;59.53;56.10;;;4.50;99.90;;;;;;4373913;32;20151;-60
2022/03/23 06:19:49;;;;;;;53.73;51.47;;;4.60;99.90;;;;;;4375539;32;20227;-60
2022/03/23 06:22:18;;;;;;;54.30;51.87;;;4.70;99.90;;;;;;4376030;32;20231;-60
2022/03/23 06:24:45;;;;;;;58.07;55.53;;;4.80;99.90;;;;;;4374110;32;20140;-60
2022/03/23 06:27:11;;;;;;;56.50;54.10;;;4.90;99.90;;;;;;4373927;32;20477;-60
2022/03/23 06:29:39;;;;;;;62.13;59.30;;;5.00;99.90;;;;;;4375239;32;20251;-60
2022/03/23 06:32:06;;;;;;;62.97;60.13;;;5.10;99.90;;;;;;4373845;32;20166;-59
2022/03/23 06:34:33;;;;;;;58.33;55.77;;;5.10;99.90;;;;;;4373747;32;20151;-60
2022/03/23 06:37:01;;;;;;;63.93;60.93;;;5.30;99.90;;;;;;4376083;32;20156;-59
2022/03/23 06:39:30;;;;;;;61.17;58.57;;;5.40;99.90;;;;;;4377605;32;20269;-60
2022/03/23 06:41:56;;;;;;;64.70;61.90;;;5.50;99.90;;;;;;4374715;32;20220;-58
2022/03/23 06:44:23;;;;;;;55.67;53.13;;;5.60;99.90;;;;;;4374300;32;20129;-59
2022/03/23 06:46:50;;;;;;;59.50;56.90;;;5.70;99.90;;;;;;4373338;32;20157;-60
2022/03/23 06:49:17;;;;;;;59.03;56.60;;;5.80;99.90;;;;;;4373718;32;20179;-60
2022/03/23 06:51:44;;;;;;;59.07;56.40;;;5.90;99.90;;;;;;4374897;32;20160;-60
2022/03/23 06:54:11;;;;;;;60.97;58.37;;;6.10;99.90;;;;;;4373965;32;20222;-60
2022/03/23 06:56:39;;;;;;;59.63;56.87;;;6.30;99.90;;;;;;4373492;32;20247;-60
2022/03/23 06:59:06;;;;;;;51.47;49.27;;;6.30;99.90;;;;;;4374115;32;20566;-60
2022/03/23 07:01:32;;;;;;;56.57;54.17;;;6.40;99.90;;;;;;4374975;32;20548;-60
2022/03/23 07:03:59;;;;;;;58.47;55.90;;;6.60;99.90;;;;;;4373113;32;20186;-60
2022/03/23 07:06:26;;;;;;;56.73;54.10;;;6.70;99.90;;;;;;4374399;32;20259;-60
2022/03/23 07:11:38;;;;;;;53.70;51.13;;;6.90;99.90;;;;;;4374063;32;20465;-60
2022/03/23 07:14:05;;;;;;;47.20;45.00;;;7.20;99.90;;;;;;4375933;32;20171;-60
2022/03/23 07:16:32;;;;;;;43.93;41.93;;;7.30;99.90;;;;;;4374464;32;20204;-60
2022/03/23 07:18:58;;;;;;;46.03;43.77;;;7.50;99.90;;;;;;4372014;32;20163;-60
2022/03/23 07:21:25;;;;;;;40.20;38.37;;;7.60;99.90;;;;;;4374486;32;20172;-59
2022/03/23 07:23:52;;;;;;;36.00;34.27;;;7.80;99.90;;;;;;4372660;32;20219;-58
2022/03/23 07:26:21;;;;;;;34.37;32.73;;;8.00;99.90;;;;;;4374905;32;20228;-60
2022/03/23 07:28:49;;;;;;;36.00;34.07;;;8.20;99.90;;;;;;4375136;32;20678;-59
2022/03/23 07:31:16;;;;;;;40.67;38.67;;;8.40;99.90;;;;;;4376384;32;20153;-60
2022/03/23 07:33:45;;;;;;;37.17;35.37;;;8.50;99.90;;;;;;4381856;32;20232;-61
2022/03/23 07:36:12;;;;;;;39.83;37.93;;;8.60;99.90;;;;;;4375068;32;20271;-60
2022/03/23 07:38:39;;;;;;;33.23;31.53;;;8.80;99.90;;;;;;4374281;32;20169;-59
2022/03/23 07:41:06;;;;;;;26.23;24.93;;;9.00;99.90;;;;;;4372724;32;20178;-59
2022/03/23 07:43:34;;;;;;;24.20;22.83;;;9.20;99.90;;;;;;4376683;32;20227;-62
2022/03/23 07:46:02;;;;;;;24.23;23.10;;;9.40;99.90;;;;;;4374003;32;20222;-59
2022/03/23 07:48:29;;;;;;;23.77;22.43;;;9.60;99.90;;;;;;4374623;32;20165;-60
2022/03/23 07:50:56;;;;;;;24.40;23.20;;;9.80;99.90;;;;;;4375199;32;20147;-60
2022/03/23 07:53:23;;;;;;;24.23;22.77;;;10.00;99.90;;;;;;4374948;32;20186;-60
2022/03/23 07:55:50;;;;;;;21.67;20.40;;;10.10;98.70;;;;;;4374847;32;20162;-60
2022/03/23 07:58:16;;;;;;;23.30;21.93;;;10.30;98.80;;;;;;4373676;32;20174;-59
2022/03/23 08:00:47;;;;;;;25.40;24.00;;;10.50;98.60;;;;;;4324391;32;1657211;-61
2022/03/23 08:03:15;;;;;;;25.43;24.03;;;10.70;98.20;;;;;;4369607;32;20145;-59
2022/03/23 08:05:42;;;;;;;24.70;23.17;;;11.00;97.70;;;;;;4370492;32;20169;-61
2022/03/23 08:08:09;;;;;;;25.17;23.80;;;11.20;97.20;;;;;;4369880;32;20668;-60
2022/03/23 08:10:36;;;;;;;24.63;23.23;;;11.40;96.70;;;;;;4371510;32;20174;-60
2022/03/23 08:13:03;;;;;;;23.63;22.10;;;11.60;96.10;;;;;;4371005;32;20156;-60
2022/03/23 08:15:34;;;;;;;24.17;22.87;;;11.80;95.30;;;;;;4369555;32;20159;-60
2022/03/23 08:18:01;;;;;;;21.53;20.30;;;12.00;94.50;;;;;;4371407;32;20562;-60
2022/03/23 08:20:35;;;;;;;25.67;24.37;;;12.20;93.70;;;;;;4369831;32;20208;-59
2022/03/23 08:23:03;;;;;;;24.13;22.87;;;12.50;93.20;;;;;;4371454;32;20197;-57
2022/03/23 08:25:30;;;;;;;26.27;24.93;;;12.80;93.20;;;;;;4374382;32;20224;-59
2022/03/23 08:27:58;;;;;;;27.90;26.50;;;13.10;92.30;;;;;;4374449;32;20603;-58
2022/03/23 08:30:26;;;;;;;28.97;27.47;;;13.40;91.70;;;;;;4373748;32;20235;-58
2022/03/23 08:32:52;;;;;;;26.40;25.10;;;13.70;90.90;;;;;;4374171;32;20141;-59
2022/03/23 08:35:23;;;;;;;25.70;24.13;;;14.00;90.20;;;;;;4374007;32;20199;-61
2022/03/23 08:37:52;;;;;;;27.60;26.10;;;14.30;87.90;;;;;;4374282;32;20153;-60
2022/03/23 08:40:19;;;;;;;30.30;28.60;;;14.60;87.80;;;;;;4370848;32;20356;-58
2022/03/23 08:42:46;;;;;;;25.57;24.13;;;14.90;85.60;;;;;;4374918;32;20161;-58
2022/03/23 08:45:13;;;;;;;26.00;24.50;;;15.20;84.10;;;;;;4374567;32;20228;-59
2022/03/23 08:47:40;;;;;;;22.87;21.70;;;15.60;80.40;;;;;;4374158;32;20246;-59
2022/03/23 08:50:09;;;;;;;24.57;23.10;;;15.80;77.80;;;;;;4372895;32;20545;-59
2022/03/23 08:52:37;;;;;;;22.60;21.40;;;15.70;76.70;;;;;;4375031;32;20143;-59
2022/03/23 08:55:07;;;;;;;24.27;22.63;;;15.60;75.60;;;;;;4374136;32;20147;-60
2022/03/23 08:57:34;;;;;;;22.93;21.63;;;15.50;75.80;;;;;;4374222;32;20210;-60
2022/03/23 09:00:00;;;;;;;24.73;23.27;;;15.40;75.40;;;;;;4371639;32;20186;-59
2022/03/23 09:02:27;;;;;;;23.33;21.93;;;15.40;75.30;;;;;;4376544;32;20246;-59
2022/03/23 09:04:54;;;;;;;24.00;22.67;;;15.40;75.10;;;;;;4374874;32;20176;-59
2022/03/23 09:07:21;;;;;;;23.63;22.20;;;15.50;75.60;;;;;;4375812;32;20148;-59
2022/03/23 09:09:48;;;;;;;21.87;20.67;;;15.40;75.20;;;;;;4376053;32;20235;-59
2022/03/23 09:12:16;;;;;;;22.73;21.10;;;15.50;71.40;;;;;;4376575;32;20166;-59
2022/03/23 09:14:44;;;;;;;18.77;17.60;;;15.40;71.90;;;;;;4375703;32;20152;-59
2022/03/23 09:17:11;;;;;;;24.23;22.63;;;15.40;71.20;;;;;;4375397;32;20182;-59
2022/03/23 09:19:38;;;;;;;23.87;22.57;;;15.50;70.30;;;;;;4374619;32;20133;-59
2022/03/23 09:22:05;;;;;;;21.23;19.93;;;15.50;70.60;;;;;;4370680;32;20250;-59
2022/03/23 09:24:32;;;;;;;22.50;21.27;;;15.60;70.50;;;;;;4360055;33;20184;-59
2022/03/23 09:26:59;;;;;;;22.00;20.60;;;15.60;70.60;;;;;;4370340;32;20215;-57
2022/03/23 09:29:27;;;;;;;21.60;20.33;;;15.70;68.70;;;;;;4377183;32;20211;-58
2022/03/23 09:31:54;;;;;;;22.57;21.00;;;15.60;69.90;;;;;;4379065;32;20144;-58
2022/03/23 09:34:21;;;;;;;23.80;22.40;;;15.80;69.00;;;;;;4377640;32;20133;-58
2022/03/23 09:39:32;;;;;;;21.03;19.83;;;15.90;68.80;;;;;;4378646;32;20140;-59
2022/03/23 09:41:59;;;;;;;24.17;22.60;;;16.00;67.20;;;;;;4376879;32;20628;-59
2022/03/23 09:44:29;;;;;;;24.97;23.37;;;16.10;68.00;;;;;;4378965;32;20211;-59
2022/03/23 09:46:57;;;;;;;20.70;19.57;;;16.20;68.70;;;;;;4377505;32;20193;-59
2022/03/23 09:49:25;;;;;;;24.77;23.40;;;16.30;67.40;;;;;;4377306;32;20187;-59
2022/03/23 09:51:54;;;;;;;24.17;22.67;;;16.50;68.10;;;;;;4376633;32;20152;-58
2022/03/23 09:54:22;;;;;;;24.00;22.67;;;16.60;66.80;;;;;;4378210;32;20149;-59
2022/03/23 09:56:49;;;;;;;25.00;23.67;;;16.60;65.70;;;;;;4378514;32;20561;-59
2022/03/23 09:59:16;;;;;;;29.37;27.77;;;16.70;66.00;;;;;;4377862;32;20143;-58
2022/03/23 10:02:16;;;;;;;26.67;25.23;;;16.80;66.30;;;;;;4376522;32;20170;-58
2022/03/23 10:05:25;;;;;;;25.93;24.23;;;16.90;65.70;;;;;;4316574;33;20515;-59
2022/03/23 10:08:04;;;;;;;23.83;22.53;;;17.00;65.10;;;;;;4272770;33;20151;-59
2022/03/23 10:11:35;;;;;;;23.60;22.27;;;17.00;63.80;;;;;;4273699;33;20305;-59
2022/03/23 10:14:56;;;;;;;21.53;20.37;;;17.10;62.30;;;;;;4203460;34;20165;-59
2022/03/23 10:17:48;;;;;;;21.77;20.40;;;17.20;61.70;;;;;;4178594;34;20191;-59
2022/03/23 10:20:17;;;;;;;23.73;22.33;;;17.30;61.30;;;;;;4189257;34;20408;-58
2022/03/23 10:22:47;;;;;;;27.07;25.37;;;17.30;62.30;;;;;;4187867;34;20171;-59
2022/03/23 10:25:17;;;;;;;27.03;25.63;;;17.50;62.90;;;;;;4189633;34;20187;-59
2022/03/23 10:27:44;;;;;;;22.63;21.07;;;17.50;62.60;;;;;;4188552;34;20606;-59
2022/03/23 10:30:14;;;;;;;25.50;23.80;;;17.60;62.20;;;;;;4188394;34;20172;-59
2022/03/23 10:32:42;;;;;;;25.50;23.80;;;17.60;60.30;;;;;;4188048;34;20535;-59
2022/03/23 10:35:13;;;;;;;22.50;21.20;;;17.70;60.40;;;;;;4183306;34;20149;-59
2022/03/23 10:37:40;;;;;;;23.67;22.37;;;17.70;60.00;;;;;;4179904;34;20232;-59
2022/03/23 10:40:09;;;;;;;24.83;23.30;;;17.70;60.80;;;;;;4182891;34;20236;-59
2022/03/23 10:42:40;;;;;;;26.17;24.60;;;17.80;60.30;;;;;;4237801;33;20237;-59
2022/03/23 10:45:10;;;;;;;25.27;23.87;;;17.80;59.80;;;;;;4290652;33;20184;-59
2022/03/23 10:47:39;;;;;;;25.70;24.10;;;17.90;59.70;;;;;;4311719;33;20175;-60
2022/03/23 10:50:15;;;;;;;22.60;21.20;;;17.90;59.40;;;;;;4344020;33;20674;-60
2022/03/23 10:52:56;;;;;;;24.70;23.30;;;17.80;58.50;;;;;;4358098;32;20148;-59
2022/03/23 10:55:24;;;;;;;26.17;24.70;;;17.90;58.10;;;;;;4377588;32;20219;-60
2022/03/23 10:58:20;;;;;;;20.27;19.10;;;18.00;57.90;;;;;;4375536;32;20179;-59
2022/03/23 11:00:48;;;;;;;21.33;20.13;;;18.10;56.80;;;;;;4371697;32;20214;-59
2022/03/23 11:03:15;;;;;;;22.97;21.57;;;18.10;56.50;;;;;;4375929;32;20235;-59
2022/03/23 11:05:43;;;;;;;24.50;23.10;;;18.20;57.00;;;;;;4375370;32;20536;-58
2022/03/23 11:08:12;;;;;;;23.50;22.03;;;18.30;57.20;;;;;;4376421;32;20195;-60
2022/03/23 11:16:12;;;;;;;23.23;21.97;;;18.30;56.20;;;;;;4377479;32;20158;-59
2022/03/23 11:18:40;;;;;;;22.23;20.87;;;18.40;56.20;;;;;;4375295;32;20156;-59
2022/03/23 11:21:08;;;;;;;23.33;21.93;;;18.40;54.60;;;;;;4374831;32;20166;-59
2022/03/23 11:23:38;;;;;;;24.33;22.93;;;18.30;53.90;;;;;;4377142;32;20266;-59
2022/03/23 11:26:08;;;;;;;22.37;21.17;;;18.30;54.50;;;;;;4374772;32;20162;-59
2022/03/23 11:28:38;;;;;;;24.33;22.97;;;18.30;52.60;;;;;;4375749;32;20500;-59
2022/03/23 11:31:06;;;;;;;22.97;21.63;;;18.30;53.50;;;;;;4374824;32;20232;-59
2022/03/23 11:33:34;;;;;;;22.77;21.50;;;18.30;53.70;;;;;;4375300;32;20174;-59
2022/03/23 11:36:03;;;;;;;25.60;23.93;;;18.30;54.30;;;;;;4375731;32;20558;-59
2022/03/23 11:38:30;;;;;;;26.60;24.93;;;18.40;55.20;;;;;;4375852;32;20159;-59
2022/03/23 11:40:58;;;;;;;29.77;28.20;;;18.50;57.10;;;;;;4373120;32;20157;-59
2022/03/23 11:43:27;;;;;;;27.77;26.30;;;18.50;57.80;;;;;;4370417;32;20145;-60
2022/03/23 11:45:55;;;;;;;30.80;28.93;;;18.50;55.80;;;;;;4375443;32;20657;-59
2022/03/23 11:48:32;;;;;;;33.67;31.77;;;18.60;57.60;;;;;;4375163;32;20206;-60
2022/03/23 11:51:13;;;;;;;30.37;28.57;;;18.60;58.80;;;;;;4374648;32;20455;-59
2022/03/23 11:53:53;;;;;;;32.73;30.83;;;18.50;57.40;;;;;;4372028;32;20255;-59
2022/03/23 11:56:24;;;;;;;31.67;29.57;;;18.60;58.20;;;;;;4374964;32;20199;-59
2022/03/23 11:58:52;;;;;;;34.03;32.20;;;18.50;56.40;;;;;;4374244;32;20251;-60
2022/03/23 12:01:21;;;;;;;31.63;29.83;;;18.40;57.30;;;;;;4374549;32;20259;-59
2022/03/23 12:03:50;;;;;;;31.27;29.60;;;18.30;57.20;;;;;;4375201;32;20148;-59
2022/03/23 12:06:19;;;;;;;34.47;32.43;;;18.30;58.30;;;;;;4377344;32;20182;-59
2022/03/23 12:08:48;;;;;;;30.80;29.23;;;18.40;58.10;;;;;;4377268;32;20167;-59
2022/03/23 12:11:34;;;;;;;32.80;30.80;;;18.60;58.10;;;;;;4376135;32;20140;-60
2022/03/23 12:14:03;;;;;;;31.13;29.23;;;18.60;56.90;;;;;;4376125;32;20601;-60
2022/03/23 12:17:02;;;;;;;30.27;28.37;;;18.70;56.40;;;;;;4376546;32;20606;-59
2022/03/23 12:19:30;;;;;;;28.60;26.80;;;18.70;57.00;;;;;;4375030;32;20179;-59
2022/03/23 12:22:01;;;;;;;36.83;34.73;;;18.70;56.20;;;;;;4375494;32;20165;-59
2022/03/23 12:24:35;;;;;;;29.63;27.87;;;18.70;56.50;;;;;;4375768;32;20157;-60
2022/03/23 12:27:08;;;;;;;29.53;27.93;;;18.80;55.40;;;;;;4377029;32;20170;-59
2022/03/23 12:29:39;;;;;;;25.40;24.07;;;18.80;56.20;;;;;;4376967;32;20565;-60
2022/03/23 12:32:10;;;;;;;31.37;29.40;;;18.70;54.50;;;;;;4376480;32;20137;-60
2022/03/23 12:34:39;;;;;;;31.10;29.33;;;18.70;55.30;;;;;;4375287;32;20157;-60
2022/03/23 12:37:10;;;;;;;29.77;28.17;;;18.70;55.00;;;;;;4376893;32;20526;-60
2022/03/23 12:39:39;;;;;;;29.67;27.93;;;18.80;54.60;;;;;;4374919;32;20168;-60
2022/03/23 12:42:18;;;;;;;31.57;29.67;;;18.80;55.40;;;;;;4375299;32;20171;-59
2022/03/23 12:44:48;;;;;;;31.87;30.27;;;18.80;54.90;;;;;;4374131;32;20160;-59
2022/03/23 12:47:20;;;;;;;29.97;27.37;;;18.90;55.20;;;;;;4375310;32;20171;-60
2022/03/23 12:58:09;;;;;;;29.60;27.90;;;18.70;53.80;;;;;;4376603;32;20465;-60
2022/03/23 13:00:41;;;;;;;27.60;26.10;;;18.80;55.10;;;;;;4375862;32;20509;-60
2022/03/23 13:03:50;;;;;;;28.43;26.67;;;18.70;54.10;;;;;;4379369;32;20194;-60
2022/03/23 13:06:20;;;;;;;28.13;26.47;;;18.70;54.20;;;;;;4363508;32;20137;-60
2022/03/23 13:08:50;;;;;;;33.27;31.30;;;18.70;54.00;;;;;;4377074;32;20156;-60
2022/03/23 13:11:21;;;;;;;31.03;29.27;;;18.70;54.30;;;;;;4377908;32;20137;-60